Time;durP1;ratioP1;P1;durP2;ratioP2;P2;SDS_P1;SDS_P2;PMS_P1;PMS_P2;Temp;Humidity;BMP_temperature;BMP_pressure;BME280_temperature;BME280_humidity;BME280_pressure;Samples;Min_cycle;Max_cycle;Signal;HPM_P1;HPM_P2
2024/01/22 00:00:13;;;;;;;1.60;1.17;;;;;1.60;96591.00;;;;5058048;28;20192;-60
2024/01/22 00:02:42;;;;;;;1.57;1.47;;;;;1.60;96586.00;;;;5056845;28;20244;-60
2024/01/22 00:05:11;;;;;;;0.83;0.83;;;;;1.90;96585.00;;;;5056870;28;20200;-59
2024/01/22 00:07:38;;;;;;;1.13;1.13;;;;;1.90;96584.00;;;;5056496;28;20192;-60
2024/01/22 00:10:07;;;;;;;0.90;0.90;;;;;1.80;96563.00;;;;5056252;28;20188;-61
2024/01/22 00:12:34;;;;;;;1.07;1.07;;;;;2.00;96571.00;;;;5056283;28;20216;-61
2024/01/22 00:15:02;;;;;;;0.80;0.80;;;;;2.10;96570.00;;;;5056602;28;20279;-58
2024/01/22 00:17:32;;;;;;;0.97;0.97;;;;;1.80;96565.00;;;;5056688;28;20208;-59
2024/01/22 00:20:00;;;;;;;1.63;1.53;;;;;1.80;96567.00;;;;5055914;28;20207;-59
2024/01/22 00:22:28;;;;;;;1.27;1.27;;;;;1.80;96548.00;;;;5056261;28;20557;-59
2024/01/22 00:24:56;;;;;;;2.03;1.90;;;;;1.60;96550.00;;;;5055681;28;20548;-59
2024/01/22 00:27:23;;;;;;;1.00;1.00;;;;;1.60;96534.00;;;;5057330;28;20214;-60
2024/01/22 00:29:50;;;;;;;1.67;1.57;;;;;1.50;96536.00;;;;5056140;28;20199;-59
2024/01/22 00:32:18;;;;;;;1.10;1.10;;;;;1.50;96535.00;;;;5037700;28;20227;-60
2024/01/22 00:34:45;;;;;;;1.50;1.43;;;;;1.50;96536.00;;;;5055735;28;20202;-60
2024/01/22 00:37:12;;;;;;;1.30;1.27;;;;;1.20;96533.00;;;;5055764;28;20239;-61
2024/01/22 00:39:41;;;;;;;1.43;1.33;;;;;1.10;96511.00;;;;5055473;28;20196;-59
2024/01/22 00:42:08;;;;;;;2.87;1.53;;;;;1.20;96506.00;;;;5056319;28;20223;-60
2024/01/22 00:44:35;;;;;;;1.27;1.27;;;;;0.90;96499.00;;;;5055859;28;20579;-60
2024/01/22 00:47:02;;;;;;;2.03;1.43;;;;;0.90;96487.00;;;;5055930;28;20199;-59
2024/01/22 00:49:30;;;;;;;1.23;1.23;;;;;0.90;96483.00;;;;5056298;28;20203;-60
2024/01/22 00:51:57;;;;;;;1.23;0.93;;;;;0.70;96471.00;;;;5055117;28;20574;-61
2024/01/22 00:54:28;;;;;;;2.33;2.17;;;;;0.80;96455.00;;;;5056954;28;20195;-61
2024/01/22 00:56:58;;;;;;;1.30;1.30;;;;;0.80;96454.00;;;;5056746;28;20222;-60
2024/01/22 00:59:26;;;;;;;1.27;1.23;;;;;1.20;96455.00;;;;5055966;28;20262;-60
2024/01/22 01:01:53;;;;;;;1.20;1.10;;;;;1.10;96452.00;;;;5056532;28;20713;-60
2024/01/22 01:04:21;;;;;;;0.93;0.93;;;;;1.10;96467.00;;;;5055094;28;20605;-60
2024/01/22 01:06:48;;;;;;;1.47;1.37;;;;;1.00;96459.00;;;;5037190;28;20214;-60
2024/01/22 01:09:17;;;;;;;0.80;0.80;;;;;0.90;96467.00;;;;5058005;28;20203;-60
2024/01/22 01:11:44;;;;;;;1.47;1.37;;;;;0.80;96414.00;;;;5057161;28;20191;-60
2024/01/22 01:14:13;;;;;;;1.30;1.30;;;;;0.80;96455.00;;;;5055130;28;20218;-60
2024/01/22 01:16:40;;;;;;;1.57;1.47;;;;;0.80;96436.00;;;;5038208;28;20230;-60
2024/01/22 01:19:08;;;;;;;2.30;1.90;;;;;0.50;96438.00;;;;5057511;28;20299;-60
2024/01/22 01:21:42;;;;;;;2.67;1.77;;;;;0.60;96446.00;;;;5057240;28;20191;-60
2024/01/22 01:24:10;;;;;;;4.80;1.30;;;;;0.70;96451.00;;;;5056104;28;20186;-60
2024/01/22 01:26:42;;;;;;;1.87;1.77;;;;;0.80;96445.00;;;;5054954;28;20190;-61
2024/01/22 01:29:09;;;;;;;3.03;1.83;;;;;0.90;96439.00;;;;5055608;28;20214;-61
2024/01/22 01:31:38;;;;;;;1.57;1.47;;;;;0.70;96436.00;;;;5055581;28;20196;-62
2024/01/22 01:34:06;;;;;;;1.47;1.37;;;;;0.60;96444.00;;;;5057202;28;20195;-61
2024/01/22 01:36:33;;;;;;;1.00;1.00;;;;;0.60;96446.00;;;;5056867;28;20226;-61
2024/01/22 01:39:01;;;;;;;1.43;1.30;;;;;0.80;96445.00;;;;5057601;28;20203;-61
2024/01/22 01:41:28;;;;;;;0.83;0.83;;;;;0.70;96452.00;;;;5054161;28;20203;-60
2024/01/22 01:43:55;;;;;;;1.00;1.00;;;;;0.60;96452.00;;;;5055507;28;20195;-60
2024/01/22 01:46:23;;;;;;;1.30;1.20;;;;;0.50;96448.00;;;;5055195;28;20195;-60
2024/01/22 01:48:56;;;;;;;1.07;1.00;;;;;0.40;96451.00;;;;5056647;28;20256;-60
2024/01/22 01:51:25;;;;;;;1.07;1.07;;;;;0.40;96431.00;;;;5055032;28;20552;-60
2024/01/22 01:53:54;;;;;;;2.17;2.07;;;;;0.60;96423.00;;;;5054815;28;20206;-60
2024/01/22 01:56:21;;;;;;;3.27;1.57;;;;;0.60;96432.00;;;;5054723;28;20215;-60
2024/01/22 01:58:50;;;;;;;1.80;1.50;;;;;0.60;96429.00;;;;5055081;28;20199;-60
2024/01/22 02:01:24;;;;;;;1.37;1.37;;;;;0.40;96424.00;;;;5056280;28;20608;-60
2024/01/22 02:03:53;;;;;;;1.10;1.10;;;;;0.40;96402.00;;;;5054682;28;20191;-60
2024/01/22 02:06:20;;;;;;;1.57;1.47;;;;;0.80;96393.00;;;;5054101;28;20191;-60
2024/01/22 02:08:56;;;;;;;1.37;1.30;;;;;1.00;96405.00;;;;5055444;28;20198;-60
2024/01/22 02:11:24;;;;;;;1.13;1.13;;;;;1.00;96414.00;;;;5055296;28;20211;-60
2024/01/22 02:13:53;;;;;;;0.97;0.97;;;;;1.00;96423.00;;;;5056087;28;20646;-60
2024/01/22 02:16:21;;;;;;;1.40;1.30;;;;;1.10;96416.00;;;;5053984;28;20274;-60
2024/01/22 02:18:48;;;;;;;1.73;1.63;;;;;1.00;96429.00;;;;5054883;28;20198;-60
2024/01/22 02:21:17;;;;;;;1.17;1.17;;;;;0.90;96427.00;;;;5055200;28;20545;-61
2024/01/22 02:23:45;;;;;;;1.43;1.40;;;;;0.80;96438.00;;;;5054328;28;20217;-60
2024/01/22 02:26:13;;;;;;;2.17;2.03;;;;;0.80;96427.00;;;;5053855;28;20202;-59
2024/01/22 02:28:40;;;;;;;2.87;1.30;;;;;0.70;96415.00;;;;5054237;28;20197;-59
2024/01/22 02:31:10;;;;;;;2.00;1.57;;;;;0.80;96416.00;;;;5054369;28;20262;-59
2024/01/22 02:33:37;;;;;;;3.93;1.33;;;;;0.80;96404.00;;;;5036593;28;20228;-60
2024/01/22 02:36:07;;;;;;;1.20;1.10;;;;;0.60;96413.00;;;;5054560;28;20210;-60
2024/01/22 02:38:40;;;;;;;0.97;0.97;;;;;0.50;96411.00;;;;5055174;28;20200;-59
2024/01/22 02:41:09;;;;;;;1.23;1.17;;;;;0.60;96402.00;;;;5036515;28;20195;-59
2024/01/22 02:43:36;;;;;;;1.00;0.90;;;;;0.70;96395.00;;;;5054340;28;20703;-59
2024/01/22 02:46:04;;;;;;;0.93;0.93;;;;;0.80;96394.00;;;;5054598;28;20195;-60
2024/01/22 02:48:31;;;;;;;1.07;1.07;;;;;1.00;96403.00;;;;5053950;28;20195;-60
2024/01/22 02:50:58;;;;;;;1.50;1.40;;;;;1.10;96394.00;;;;5053172;28;20551;-60
2024/01/22 02:53:26;;;;;;;0.70;0.70;;;;;1.10;96389.00;;;;5053798;28;20226;-60
2024/01/22 02:55:53;;;;;;;2.07;1.23;;;;;1.10;96389.00;;;;5053470;28;20195;-60
2024/01/22 02:58:22;;;;;;;0.80;0.80;;;;;1.10;96389.00;;;;5053496;28;20207;-60
2024/01/22 03:00:49;;;;;;;1.40;1.40;;;;;1.20;96392.00;;;;5055075;28;20594;-60
2024/01/22 03:03:17;;;;;;;1.53;1.43;;;;;1.00;96384.00;;;;5053935;28;20211;-60
2024/01/22 03:05:46;;;;;;;0.87;0.87;;;;;0.90;96380.00;;;;5053561;28;20201;-59
2024/01/22 03:08:13;;;;;;;1.37;1.17;;;;;0.80;96371.00;;;;5053522;28;20196;-59
2024/01/22 03:10:40;;;;;;;1.13;1.10;;;;;0.90;96365.00;;;;5054585;28;20210;-60
2024/01/22 03:13:08;;;;;;;0.83;0.83;;;;;0.90;96363.00;;;;5055249;28;20223;-61
2024/01/22 03:15:37;;;;;;;1.33;1.23;;;;;1.00;96365.00;;;;5057667;28;20207;-60
2024/01/22 03:18:04;;;;;;;1.07;1.07;;;;;1.00;96366.00;;;;5057716;28;20221;-60
2024/01/22 03:20:32;;;;;;;0.80;0.80;;;;;1.00;96344.00;;;;5057686;28;20202;-59
2024/01/22 03:22:59;;;;;;;1.00;1.00;;;;;1.20;96343.00;;;;5057155;28;20214;-59
2024/01/22 03:25:29;;;;;;;0.90;0.90;;;;;1.50;96330.00;;;;5057018;28;20200;-59
2024/01/22 03:27:57;;;;;;;1.17;1.17;;;;;1.70;96337.00;;;;5058665;28;20192;-59
2024/01/22 03:30:24;;;;;;;1.00;1.00;;;;;1.70;96334.00;;;;5057039;28;20188;-60
2024/01/22 03:32:53;;;;;;;2.77;1.83;;;;;1.80;96336.00;;;;5057046;28;20705;-59
2024/01/22 03:35:21;;;;;;;1.83;1.27;;;;;1.90;96334.00;;;;5057097;28;20199;-59
2024/01/22 03:37:48;;;;;;;0.80;0.80;;;;;1.90;96328.00;;;;5057990;28;20219;-59
2024/01/22 03:40:16;;;;;;;0.70;0.70;;;;;1.80;96330.00;;;;5056748;28;20204;-59
2024/01/22 03:42:43;;;;;;;2.63;1.73;;;;;1.70;96332.00;;;;5056287;28;20215;-59
2024/01/22 03:45:11;;;;;;;3.20;1.27;;;;;1.60;96333.00;;;;5056642;28;20199;-58
2024/01/22 03:47:39;;;;;;;1.47;1.40;;;;;1.50;96320.00;;;;5058688;28;20198;-59
2024/01/22 03:50:10;;;;;;;1.23;1.23;;;;;2.00;96331.00;;;;5056517;28;20664;-59
2024/01/22 03:52:39;;;;;;;2.37;1.60;;;;;2.20;96327.00;;;;5056715;28;20228;-59
2024/01/22 03:55:08;;;;;;;1.90;1.63;;;;;2.50;96308.00;;;;5058077;28;20199;-60
2024/01/22 03:57:36;;;;;;;1.50;1.30;;;;;2.50;96306.00;;;;5057881;28;20567;-60
2024/01/22 04:00:07;;;;;;;1.13;1.13;;;;;2.60;96301.00;;;;5058400;28;20682;-59
2024/01/22 04:02:35;;;;;;;1.00;1.00;;;;;2.50;96332.00;;;;5056171;28;20305;-59
2024/01/22 04:05:02;;;;;;;1.73;1.63;;;;;2.60;96317.00;;;;5056086;28;20196;-60
2024/01/22 04:07:31;;;;;;;1.30;1.30;;;;;2.60;96312.00;;;;5056146;28;20196;-58
2024/01/22 04:09:58;;;;;;;1.10;0.97;;;;;2.60;96312.00;;;;5056524;28;20196;-59
2024/01/22 04:12:26;;;;;;;1.27;1.23;;;;;2.70;96310.00;;;;5056229;28;20216;-59
2024/01/22 04:14:53;;;;;;;1.40;1.30;;;;;2.70;96303.00;;;;5056669;28;20206;-59
2024/01/22 04:17:20;;;;;;;1.00;1.00;;;;;2.60;96308.00;;;;5056901;28;20218;-60
2024/01/22 04:19:48;;;;;;;0.90;0.90;;;;;2.50;96302.00;;;;5055772;28;20198;-59
2024/01/22 04:22:18;;;;;;;1.33;1.23;;;;;2.40;96294.00;;;;5056575;28;20211;-59
2024/01/22 04:24:47;;;;;;;1.67;1.57;;;;;2.40;96295.00;;;;5056028;28;20207;-59
2024/01/22 04:27:14;;;;;;;1.50;1.40;;;;;2.30;96299.00;;;;5057857;28;20195;-60
2024/01/22 04:29:42;;;;;;;1.53;1.40;;;;;2.30;96315.00;;;;5056079;28;20197;-59
2024/01/22 04:32:09;;;;;;;1.40;1.30;;;;;2.40;96298.00;;;;5056255;28;20216;-59
2024/01/22 04:34:39;;;;;;;1.77;1.50;;;;;2.50;96289.00;;;;5056134;28;20303;-59
2024/01/22 04:37:08;;;;;;;4.03;1.47;;;;;2.70;96279.00;;;;5056047;28;20239;-59
2024/01/22 04:39:37;;;;;;;2.03;1.93;;;;;2.60;96276.00;;;;5039686;28;20219;-59
2024/01/22 04:42:06;;;;;;;0.93;0.93;;;;;2.70;96270.00;;;;5055406;28;20216;-60
2024/01/22 04:44:33;;;;;;;0.90;0.90;;;;;2.80;96274.00;;;;5056761;28;20190;-59
2024/01/22 04:47:02;;;;;;;1.07;1.07;;;;;2.70;96273.00;;;;5038841;28;20196;-60
2024/01/22 04:49:29;;;;;;;1.00;1.00;;;;;2.80;96280.00;;;;5037883;28;20206;-60
2024/01/22 04:52:01;;;;;;;1.50;1.40;;;;;2.80;96273.00;;;;5056037;28;20204;-60
2024/01/22 04:54:29;;;;;;;1.43;1.33;;;;;2.80;96265.00;;;;5056296;28;20191;-61
2024/01/22 04:56:56;;;;;;;1.70;1.43;;;;;2.90;96266.00;;;;5055114;28;20196;-60
2024/01/22 04:59:25;;;;;;;1.70;1.60;;;;;3.00;96260.00;;;;5055835;28;20197;-60
2024/01/22 05:01:53;;;;;;;1.53;1.43;;;;;2.90;96270.00;;;;5055732;28;20231;-60
2024/01/22 05:04:20;;;;;;;0.90;0.90;;;;;2.90;96263.00;;;;5055005;28;20211;-60
2024/01/22 05:06:48;;;;;;;1.07;1.07;;;;;3.00;96257.00;;;;5055669;28;20196;-59
2024/01/22 05:09:15;;;;;;;1.10;1.10;;;;;3.00;96267.00;;;;5055417;28;20180;-59
2024/01/22 05:11:42;;;;;;;1.30;1.20;;;;;3.00;96251.00;;;;5055578;28;20192;-60
2024/01/22 05:14:16;;;;;;;0.87;0.87;;;;;3.00;96248.00;;;;5055130;28;20211;-60
2024/01/22 05:16:45;;;;;;;0.87;0.87;;;;;3.30;96261.00;;;;5056312;28;20181;-60
2024/01/22 05:19:12;;;;;;;3.03;1.90;;;;;3.40;96254.00;;;;5054588;28;20220;-60
2024/01/22 05:21:40;;;;;;;8.40;1.70;;;;;3.40;96252.00;;;;5054497;28;20194;-60
2024/01/22 05:24:08;;;;;;;0.70;0.70;;;;;3.40;96248.00;;;;5055541;28;20192;-59
2024/01/22 05:26:35;;;;;;;0.70;0.70;;;;;3.40;96248.00;;;;5055239;28;20195;-59
2024/01/22 05:29:02;;;;;;;1.00;1.00;;;;;3.50;96247.00;;;;5054992;28;20288;-59
2024/01/22 05:31:30;;;;;;;2.07;1.50;;;;;3.80;96256.00;;;;5055447;28;20188;-59
2024/01/22 05:33:59;;;;;;;1.03;1.03;;;;;4.10;96240.00;;;;5054656;28;20214;-60
2024/01/22 05:36:26;;;;;;;1.00;1.00;;;;;4.30;96245.00;;;;5056258;28;20188;-59
2024/01/22 05:38:53;;;;;;;0.90;0.90;;;;;4.30;96231.00;;;;5055155;28;20223;-60
2024/01/22 05:41:21;;;;;;;0.80;0.80;;;;;4.40;96219.00;;;;5036324;28;20192;-59
2024/01/22 05:43:48;;;;;;;1.57;1.50;;;;;4.40;96207.00;;;;5055978;28;20208;-61
2024/01/22 05:46:16;;;;;;;0.87;0.87;;;;;4.50;96207.00;;;;5056216;28;20200;-59
2024/01/22 05:48:43;;;;;;;0.83;0.83;;;;;4.60;96211.00;;;;5054357;28;20218;-59
2024/01/22 05:51:12;;;;;;;0.80;0.80;;;;;4.40;96202.00;;;;5055971;28;20192;-59
2024/01/22 05:53:40;;;;;;;0.63;0.63;;;;;4.40;96201.00;;;;5055639;28;20290;-59
2024/01/22 05:56:20;;;;;;;0.83;0.83;;;;;4.40;96201.00;;;;5054512;28;20190;-60
2024/01/22 05:58:47;;;;;;;0.90;0.90;;;;;4.60;96218.00;;;;5054360;28;20203;-60
2024/01/22 06:01:20;;;;;;;0.83;0.83;;;;;4.70;96209.00;;;;5053947;28;20196;-59
2024/01/22 06:03:47;;;;;;;0.60;0.60;;;;;5.00;96206.00;;;;5053746;28;20217;-59
2024/01/22 06:06:16;;;;;;;1.80;1.43;;;;;4.80;96204.00;;;;5055311;28;20203;-61
2024/01/22 06:08:44;;;;;;;0.70;0.70;;;;;4.70;96201.00;;;;5054136;28;20192;-60
2024/01/22 06:11:12;;;;;;;0.70;0.70;;;;;4.50;96194.00;;;;5055709;28;20184;-60
2024/01/22 06:13:42;;;;;;;0.70;0.70;;;;;4.60;96202.00;;;;5055006;28;20219;-61
2024/01/22 06:16:10;;;;;;;0.60;0.60;;;;;4.60;96203.00;;;;5055082;28;20532;-61
2024/01/22 06:18:38;;;;;;;0.70;0.70;;;;;5.10;96209.00;;;;5053415;28;20215;-60
2024/01/22 06:21:06;;;;;;;0.60;0.60;;;;;5.60;96201.00;;;;5054971;28;20195;-61
2024/01/22 06:23:36;;;;;;;0.60;0.60;;;;;5.80;96194.00;;;;5055593;28;20208;-60
2024/01/22 06:26:03;;;;;;;0.57;0.57;;;;;5.90;96197.00;;;;5054664;28;20204;-60
2024/01/22 06:28:31;;;;;;;0.70;0.70;;;;;6.30;96193.00;;;;5053659;28;20187;-60
2024/01/22 06:30:59;;;;;;;1.93;1.83;;;;;6.40;96207.00;;;;5054813;28;20196;-60
2024/01/22 06:33:27;;;;;;;2.77;2.40;;;;;6.60;96194.00;;;;5053368;28;20215;-60
2024/01/22 06:35:54;;;;;;;1.83;1.70;;;;;6.80;96201.00;;;;5037049;28;20609;-61
2024/01/22 06:38:26;;;;;;;0.60;0.60;;;;;6.90;96195.00;;;;5055612;28;20216;-60
2024/01/22 06:40:55;;;;;;;0.57;0.57;;;;;6.80;96185.00;;;;5054914;28;20184;-60
2024/01/22 06:43:23;;;;;;;1.13;1.10;;;;;6.80;96183.00;;;;5035249;28;20252;-59
2024/01/22 06:45:50;;;;;;;0.73;0.73;;;;;6.90;96190.00;;;;5054009;28;20188;-60
2024/01/22 06:48:18;;;;;;;1.27;1.23;;;;;7.00;96181.00;;;;5054166;28;20180;-61
2024/01/22 06:50:46;;;;;;;0.90;0.90;;;;;6.90;96191.00;;;;5054959;28;20196;-60
2024/01/22 06:53:13;;;;;;;1.43;1.33;;;;;7.10;96187.00;;;;5054051;28;20223;-60
2024/01/22 06:55:40;;;;;;;1.20;0.80;;;;;7.20;96187.00;;;;5037317;28;20660;-60
2024/01/22 06:58:09;;;;;;;0.67;0.67;;;;;7.00;96183.00;;;;5053113;28;20225;-60
2024/01/22 07:00:37;;;;;;;0.70;0.70;;;;;7.10;96170.00;;;;5054283;28;20203;-60
2024/01/22 07:03:05;;;;;;;0.70;0.70;;;;;7.10;96194.00;;;;5054460;28;20208;-60
2024/01/22 07:05:34;;;;;;;0.70;0.70;;;;;7.10;96197.00;;;;5054569;28;20579;-60
2024/01/22 07:08:01;;;;;;;0.70;0.70;;;;;7.40;96198.00;;;;5053727;28;20192;-60
2024/01/22 07:10:30;;;;;;;1.10;1.10;;;;;7.40;96201.00;;;;5053757;28;20655;-61
2024/01/22 07:12:57;;;;;;;0.60;0.60;;;;;7.40;96207.00;;;;5053263;28;20672;-61
2024/01/22 07:15:26;;;;;;;0.50;0.50;;;;;7.50;96213.00;;;;5054374;28;20203;-61
2024/01/22 07:17:55;;;;;;;0.70;0.70;;;;;7.50;96213.00;;;;5053905;28;20192;-61
2024/01/22 07:20:23;;;;;;;0.97;0.93;;;;;7.50;96217.00;;;;5053548;28;20682;-60
2024/01/22 07:22:53;;;;;;;0.83;0.83;;;;;7.60;96206.00;;;;5052836;28;20295;-61
2024/01/22 07:25:21;;;;;;;3.50;0.70;;;;;7.60;96188.00;;;;5036758;28;20185;-60
2024/01/22 07:27:48;;;;;;;0.93;0.93;;;;;7.60;96196.00;;;;5050833;28;20208;-61
2024/01/22 07:30:16;;;;;;;1.33;0.97;;;;;7.60;96196.00;;;;5047301;28;20305;-62
2024/01/22 07:32:47;;;;;;;0.60;0.60;;;;;7.60;96195.00;;;;5053112;28;20220;-63
2024/01/22 07:35:15;;;;;;;0.70;0.70;;;;;7.70;96207.00;;;;5031860;28;20207;-60
2024/01/22 07:37:44;;;;;;;0.73;0.73;;;;;7.70;96213.00;;;;5049976;28;20195;-60
2024/01/22 07:40:13;;;;;;;0.83;0.83;;;;;7.80;96210.00;;;;5046776;28;20676;-61
2024/01/22 07:42:41;;;;;;;0.60;0.60;;;;;7.80;96203.00;;;;5051003;28;20307;-60
2024/01/22 07:45:10;;;;;;;0.60;0.60;;;;;7.80;96192.00;;;;5053170;28;20606;-58
2024/01/22 07:47:38;;;;;;;0.60;0.60;;;;;7.70;96192.00;;;;5052437;28;20545;-59
2024/01/22 07:50:10;;;;;;;0.87;0.87;;;;;7.70;96216.00;;;;5052405;28;20218;-60
2024/01/22 07:52:38;;;;;;;0.57;0.57;;;;;7.80;96180.00;;;;5053700;28;20212;-59
2024/01/22 07:55:07;;;;;;;1.10;1.00;;;;;7.70;96178.00;;;;5052369;28;20196;-60
2024/01/22 07:57:35;;;;;;;0.57;0.57;;;;;7.70;96176.00;;;;5052426;28;20275;-60
2024/01/22 08:00:09;;;;;;;0.60;0.60;;;;;7.70;96173.00;;;;5053908;28;20670;-60
2024/01/22 08:02:37;;;;;;;0.60;0.60;;;;;7.70;96186.00;;;;5032132;28;20243;-60
2024/01/22 08:05:06;;;;;;;0.60;0.60;;;;;7.70;96196.00;;;;5055671;28;20203;-60
2024/01/22 08:07:34;;;;;;;0.80;0.80;;;;;7.80;96182.00;;;;5055980;28;20232;-60
2024/01/22 08:10:01;;;;;;;0.80;0.80;;;;;7.80;96184.00;;;;5058052;28;20203;-59
2024/01/22 08:12:29;;;;;;;0.73;0.73;;;;;7.80;96161.00;;;;5056202;28;20575;-60
2024/01/22 08:14:57;;;;;;;0.80;0.80;;;;;7.70;96192.00;;;;5069895;22;20231;-61
2024/01/22 08:17:25;;;;;;;0.60;0.60;;;;;7.90;96192.00;;;;5055618;28;20314;-61
2024/01/22 08:19:52;;;;;;;1.13;0.90;;;;;7.80;96189.00;;;;5056055;28;20292;-62
2024/01/22 08:22:21;;;;;;;0.60;0.60;;;;;7.80;96201.00;;;;5055485;28;20306;-62
2024/01/22 08:24:49;;;;;;;0.60;0.60;;;;;7.80;96191.00;;;;5036983;28;20275;-61
2024/01/22 08:27:17;;;;;;;0.60;0.60;;;;;7.90;96179.00;;;;5048487;28;20196;-60
2024/01/22 08:29:44;;;;;;;0.70;0.70;;;;;7.80;96187.00;;;;5055198;28;20196;-60
2024/01/22 08:32:12;;;;;;;0.60;0.60;;;;;7.80;96198.00;;;;5055049;28;20215;-60
2024/01/22 08:34:39;;;;;;;0.50;0.50;;;;;7.90;96183.00;;;;5055226;28;20196;-61
2024/01/22 08:37:07;;;;;;;0.57;0.57;;;;;8.00;96204.00;;;;5054966;28;20555;-61
2024/01/22 08:39:36;;;;;;;0.60;0.60;;;;;8.10;96187.00;;;;5054979;28;20261;-61
2024/01/22 08:42:04;;;;;;;0.60;0.60;;;;;8.00;96190.00;;;;5042358;28;20212;-61
2024/01/22 08:44:31;;;;;;;0.70;0.70;;;;;8.00;96178.00;;;;5055445;28;20287;-61
2024/01/22 08:47:02;;;;;;;0.80;0.80;;;;;8.10;96200.00;;;;5054849;28;20194;-60
2024/01/22 08:49:31;;;;;;;0.60;0.60;;;;;8.10;96175.00;;;;5037463;28;20188;-60
2024/01/22 08:51:58;;;;;;;0.80;0.80;;;;;8.30;96186.00;;;;5054964;28;20227;-62
2024/01/22 08:54:26;;;;;;;0.83;0.83;;;;;8.40;96153.00;;;;5055071;28;20207;-62
2024/01/22 08:56:55;;;;;;;0.80;0.80;;;;;8.30;96164.00;;;;5055098;28;20200;-59
2024/01/22 08:59:23;;;;;;;0.60;0.60;;;;;8.40;96175.00;;;;5054711;28;20227;-60
2024/01/22 09:01:50;;;;;;;2.17;1.07;;;;;8.30;96165.00;;;;5055055;28;20216;-61
2024/01/22 09:04:18;;;;;;;0.83;0.83;;;;;8.50;96178.00;;;;5051038;28;20222;-61
2024/01/22 09:06:46;;;;;;;0.73;0.73;;;;;8.50;96176.00;;;;5035033;28;20204;-60
2024/01/22 09:09:14;;;;;;;0.50;0.50;;;;;8.50;96159.00;;;;5034441;28;20246;-60
2024/01/22 09:11:41;;;;;;;0.60;0.60;;;;;8.60;96184.00;;;;5028701;28;20197;-61
2024/01/22 09:14:10;;;;;;;0.73;0.73;;;;;8.60;96166.00;;;;5035120;28;20207;-62
2024/01/22 09:16:38;;;;;;;0.50;0.50;;;;;8.80;96167.00;;;;5035725;28;20192;-62
2024/01/22 09:19:06;;;;;;;1.00;1.00;;;;;8.90;96130.00;;;;5036198;28;20327;-61
2024/01/22 09:21:33;;;;;;;0.60;0.60;;;;;9.10;96138.00;;;;5035090;28;20653;-59
2024/01/22 09:24:01;;;;;;;0.50;0.50;;;;;9.00;96145.00;;;;5054288;28;20224;-59
2024/01/22 09:26:29;;;;;;;0.73;0.73;;;;;9.20;96166.00;;;;5037008;28;20207;-59
2024/01/22 09:28:56;;;;;;;0.80;0.80;;;;;8.90;96156.00;;;;5056218;28;20200;-59
2024/01/22 09:31:25;;;;;;;0.60;0.60;;;;;9.00;96142.00;;;;5056680;28;20283;-59
2024/01/22 09:33:53;;;;;;;0.87;0.87;;;;;9.00;96152.00;;;;5055488;28;20275;-60
2024/01/22 09:36:23;;;;;;;0.50;0.50;;;;;9.00;96121.00;;;;5042872;28;20204;-60
2024/01/22 09:38:50;;;;;;;0.60;0.60;;;;;9.00;96139.00;;;;5034592;28;20212;-60
2024/01/22 09:41:19;;;;;;;0.70;0.70;;;;;8.90;96136.00;;;;5017313;28;20617;-61
2024/01/22 09:43:48;;;;;;;0.70;0.70;;;;;8.90;96141.00;;;;5036525;28;20217;-61
2024/01/22 09:46:16;;;;;;;0.60;0.60;;;;;8.80;96141.00;;;;5036196;28;20197;-61
2024/01/22 09:48:45;;;;;;;0.50;0.50;;;;;8.80;96151.00;;;;5035553;28;20239;-60
2024/01/22 09:51:14;;;;;;;1.43;1.33;;;;;8.80;96141.00;;;;5036908;28;20197;-62
2024/01/22 09:53:46;;;;;;;0.70;0.70;;;;;8.80;96139.00;;;;5016505;28;20252;-61
2024/01/22 09:56:19;;;;;;;0.70;0.70;;;;;8.80;96119.00;;;;5019107;28;20291;-61
2024/01/22 09:58:54;;;;;;;0.80;0.80;;;;;9.00;96124.00;;;;5036269;28;20205;-61
2024/01/22 10:01:23;;;;;;;0.50;0.50;;;;;8.80;96115.00;;;;5048629;28;20242;-61
2024/01/22 10:03:53;;;;;;;0.70;0.70;;;;;9.10;96120.00;;;;5043831;28;20283;-61
2024/01/22 10:06:21;;;;;;;0.57;0.57;;;;;9.00;96124.00;;;;5054353;28;20195;-61
2024/01/22 10:08:58;;;;;;;0.87;0.87;;;;;8.90;96107.00;;;;5026150;28;20292;-62
2024/01/22 10:11:28;;;;;;;0.60;0.60;;;;;8.90;96095.00;;;;5018271;28;20274;-62
2024/01/22 10:13:56;;;;;;;0.53;0.53;;;;;9.00;96096.00;;;;5053090;28;20269;-61
2024/01/22 10:16:28;;;;;;;0.60;0.60;;;;;8.90;96101.00;;;;5053245;28;20230;-61
2024/01/22 10:19:04;;;;;;;0.70;0.70;;;;;9.00;96089.00;;;;5054636;28;20543;-61
2024/01/22 10:21:32;;;;;;;0.50;0.50;;;;;9.00;96092.00;;;;5055051;28;20698;-61
2024/01/22 10:24:01;;;;;;;0.60;0.60;;;;;9.00;96082.00;;;;5036239;28;20204;-61
2024/01/22 10:26:30;;;;;;;0.73;0.73;;;;;9.00;96074.00;;;;5054604;28;20278;-60
2024/01/22 10:29:15;;;;;;;0.50;0.50;;;;;9.20;96071.00;;;;5038039;28;20204;-61
2024/01/22 10:31:56;;;;;;;0.60;0.60;;;;;9.20;96053.00;;;;5029012;28;20195;-61
2024/01/22 10:34:30;;;;;;;0.60;0.60;;;;;9.40;96048.00;;;;5033676;28;20201;-61
2024/01/22 10:37:07;;;;;;;0.50;0.50;;;;;9.40;96045.00;;;;5051434;28;20246;-61
2024/01/22 10:39:37;;;;;;;1.00;0.90;;;;;9.50;96050.00;;;;5057272;28;20204;-61
2024/01/22 10:42:15;;;;;;;0.90;0.90;;;;;9.60;96045.00;;;;5046993;28;20220;-61
2024/01/22 10:44:44;;;;;;;0.50;0.50;;;;;9.70;96056.00;;;;5036999;28;20265;-60
2024/01/22 10:47:13;;;;;;;0.80;0.80;;;;;9.70;96045.00;;;;5044086;28;20196;-60
2024/01/22 10:49:45;;;;;;;0.60;0.60;;;;;9.70;96027.00;;;;5054814;28;20223;-60
2024/01/22 10:52:13;;;;;;;0.60;0.60;;;;;9.80;96029.00;;;;5054073;28;20270;-62
2024/01/22 10:54:44;;;;;;;0.50;0.50;;;;;9.70;96025.00;;;;5053532;28;20593;-61
2024/01/22 10:57:15;;;;;;;0.50;0.50;;;;;9.80;96005.00;;;;5053446;28;20278;-61
2024/01/22 10:59:49;;;;;;;1.07;1.07;;;;;9.80;95992.00;;;;5016681;28;20779;-61
2024/01/22 11:02:22;;;;;;;0.60;0.60;;;;;9.80;95991.00;;;;5016277;28;20703;-61
2024/01/22 11:04:54;;;;;;;1.40;1.30;;;;;9.70;96005.00;;;;5039330;28;20192;-62
2024/01/22 11:07:27;;;;;;;0.90;0.90;;;;;9.80;96000.00;;;;5027141;28;20200;-61
2024/01/22 11:09:56;;;;;;;0.60;0.60;;;;;9.80;95999.00;;;;5034143;28;20189;-61
2024/01/22 11:12:26;;;;;;;0.73;0.73;;;;;9.80;95974.00;;;;5033706;28;20303;-61
2024/01/22 11:14:54;;;;;;;0.50;0.50;;;;;9.70;95989.00;;;;5015876;28;20235;-61
2024/01/22 11:17:21;;;;;;;0.60;0.60;;;;;9.70;95982.00;;;;5033387;28;20215;-61
2024/01/22 11:19:50;;;;;;;0.60;0.60;;;;;9.70;95983.00;;;;5032070;28;20216;-61
2024/01/22 11:22:23;;;;;;;0.63;0.63;;;;;9.70;95996.00;;;;5032469;28;20209;-61
2024/01/22 11:25:01;;;;;;;0.60;0.60;;;;;9.70;95999.00;;;;5033448;28;20272;-61
2024/01/22 11:27:38;;;;;;;0.60;0.60;;;;;9.70;95977.00;;;;5032501;28;20191;-61
2024/01/22 11:30:27;;;;;;;1.30;1.20;;;;;9.70;95986.00;;;;5034022;28;20601;-61
2024/01/22 11:32:55;;;;;;;0.73;0.73;;;;;9.60;96008.00;;;;5032819;28;20244;-65
2024/01/22 11:35:35;;;;;;;1.33;1.10;;;;;9.40;95992.00;;;;5025977;28;20204;-62
2024/01/22 11:38:04;;;;;;;0.67;0.67;;;;;9.50;95966.00;;;;5046143;28;20235;-63
2024/01/22 11:40:48;;;;;;;0.70;0.70;;;;;9.50;95987.00;;;;5036294;28;20208;-60
2024/01/22 11:43:17;;;;;;;0.60;0.60;;;;;9.40;95971.00;;;;5036567;28;20216;-60
2024/01/22 11:45:45;;;;;;;0.80;0.80;;;;;9.50;95988.00;;;;5038111;28;20197;-60
2024/01/22 11:48:17;;;;;;;0.70;0.70;;;;;9.60;95993.00;;;;5037236;28;20220;-60
2024/01/22 11:50:58;;;;;;;0.50;0.50;;;;;9.50;95962.00;;;;5037637;28;20197;-59
2024/01/22 11:53:26;;;;;;;0.60;0.60;;;;;9.50;95982.00;;;;5038063;28;20583;-59
2024/01/22 11:56:03;;;;;;;0.60;0.60;;;;;9.50;95950.00;;;;5036197;28;20263;-60
2024/01/22 11:58:32;;;;;;;0.60;0.60;;;;;9.60;95957.00;;;;5036388;28;20192;-60
2024/01/22 12:01:02;;;;;;;0.67;0.67;;;;;9.70;95960.00;;;;5037508;28;20303;-60
2024/01/22 12:03:31;;;;;;;0.53;0.53;;;;;9.50;95970.00;;;;5035280;28;20224;-60
2024/01/22 12:06:04;;;;;;;0.60;0.60;;;;;9.40;95977.00;;;;5036903;28;20266;-60
2024/01/22 12:08:35;;;;;;;0.50;0.50;;;;;9.50;95966.00;;;;5045403;28;20703;-60
2024/01/22 12:11:09;;;;;;;0.73;0.73;;;;;9.60;95991.00;;;;5044655;28;20192;-58
2024/01/22 12:13:38;;;;;;;0.63;0.63;;;;;9.60;95973.00;;;;5021068;28;20225;-59
2024/01/22 12:16:12;;;;;;;0.60;0.60;;;;;9.50;95951.00;;;;5040066;28;20197;-59
2024/01/22 12:18:40;;;;;;;0.60;0.60;;;;;9.40;95950.00;;;;5019657;28;20287;-59
2024/01/22 12:21:11;;;;;;;0.70;0.70;;;;;9.60;95929.00;;;;5050138;28;20311;-59
2024/01/22 12:23:39;;;;;;;0.60;0.60;;;;;9.60;95947.00;;;;5046332;28;20220;-59
2024/01/22 12:26:14;;;;;;;0.60;0.60;;;;;9.60;95935.00;;;;5053209;28;20239;-59
2024/01/22 12:28:43;;;;;;;0.50;0.50;;;;;9.60;95942.00;;;;5055122;28;20246;-59
2024/01/22 12:31:11;;;;;;;0.57;0.57;;;;;9.70;95940.00;;;;5026965;28;20200;-59
2024/01/22 12:33:38;;;;;;;0.60;0.60;;;;;9.70;95926.00;;;;5054591;28;20244;-59
2024/01/22 12:36:12;;;;;;;0.73;0.73;;;;;9.70;95938.00;;;;5046117;28;20205;-59